Time;durP1;ratioP1;P1;durP2;ratioP2;P2;SDS_P1;SDS_P2;PMS_P1;PMS_P2;Temp;Humidity;BMP_temperature;BMP_pressure;BME280_temperature;BME280_humidity;BME280_pressure;Samples;Min_cycle;Max_cycle;Signal;HPM_P1;HPM_P2
2022/06/17 00:00:23;;;;;;;6.97;5.03;;;;;;;16.83;70.99;94903.75;5051338;28;20215;-75
2022/06/17 00:02:50;;;;;;;8.60;5.80;;;;;;;16.85;71.42;94906.91;5051227;28;20341;-76
2022/06/17 00:05:17;;;;;;;6.30;4.97;;;;;;;16.76;71.22;94898.13;5050950;28;20703;-76
2022/06/17 00:07:44;;;;;;;5.50;4.90;;;;;;;16.70;71.34;94877.69;5050511;28;20666;-76
2022/06/17 00:10:24;;;;;;;7.45;4.30;;;;;;;16.71;71.65;94882.00;5050995;28;20247;-75
2022/06/17 00:12:53;;;;;;;5.55;4.75;;;;;;;16.75;71.43;94888.34;5051175;28;20242;-76
2022/06/17 00:15:21;;;;;;;5.53;4.55;;;;;;;16.65;71.45;94897.13;5050413;28;20281;-76
2022/06/17 00:17:51;;;;;;;5.80;4.28;;;;;;;16.47;72.50;94890.47;5051044;28;20658;-75
2022/06/17 00:20:21;;;;;;;5.25;4.50;;;;;;;16.37;72.96;94888.28;5051656;28;20338;-76
2022/06/17 00:22:48;;;;;;;8.18;5.00;;;;;;;16.31;73.44;94896.75;5051546;28;20231;-76
2022/06/17 00:25:20;;;;;;;6.28;4.45;;;;;;;16.29;73.22;94899.06;5051826;28;20650;-75
2022/06/17 00:27:47;;;;;;;5.65;4.60;;;;;;;16.30;72.57;94911.59;5051803;28;20223;-76
2022/06/17 00:30:18;;;;;;;8.40;4.63;;;;;;;16.21;73.25;94916.47;5051893;28;20635;-76
2022/06/17 00:32:45;;;;;;;4.70;4.20;;;;;;;16.18;73.25;94911.69;5051922;28;20702;-76
2022/06/17 00:35:13;;;;;;;7.80;5.13;;;;;;;16.14;73.94;94916.28;5052179;28;20245;-76
2022/06/17 00:37:40;;;;;;;5.47;4.72;;;;;;;16.03;74.55;94904.31;5051512;28;20644;-76
2022/06/17 00:40:13;;;;;;;9.27;5.15;;;;;;;15.94;75.62;94917.38;5052349;28;20640;-76
2022/06/17 00:42:40;;;;;;;8.27;5.97;;;;;;;15.81;76.00;94904.97;5051837;28;20223;-76
2022/06/17 00:45:14;;;;;;;11.75;6.28;;;;;;;15.92;75.68;94897.81;5053153;28;20223;-76
2022/06/17 00:47:50;;;;;;;9.05;5.88;;;;;;;15.90;76.44;94900.09;5051752;28;20721;-77
2022/06/17 00:50:21;;;;;;;8.00;5.80;;;;;;;15.89;76.23;94909.44;5051691;28;20306;-76
2022/06/17 00:52:54;;;;;;;11.45;7.90;;;;;;;15.82;76.44;94903.81;5051717;28;20226;-76
2022/06/17 00:55:27;;;;;;;9.52;6.60;;;;;;;15.77;77.00;94898.63;5051893;28;20227;-77
2022/06/17 00:57:54;;;;;;;13.00;6.57;;;;;;;15.65;77.00;94899.50;5051768;28;20626;-76
2022/06/17 01:00:23;;;;;;;8.15;5.72;;;;;;;15.72;76.97;94896.16;5051262;28;20293;-75
2022/06/17 01:02:56;;;;;;;10.52;6.90;;;;;;;15.73;76.96;94895.00;5051570;28;20203;-76
2022/06/17 01:05:26;;;;;;;14.13;7.43;;;;;;;15.70;76.97;94898.47;5051863;28;20196;-76
2022/06/17 01:07:58;;;;;;;8.35;5.90;;;;;;;15.73;76.48;94895.00;5051166;28;20199;-77
2022/06/17 01:10:24;;;;;;;12.30;7.57;;;;;;;15.73;77.08;94886.81;5051749;28;20212;-76
2022/06/17 01:12:58;;;;;;;9.52;6.75;;;;;;;15.65;77.67;94894.06;5051290;28;20219;-76
2022/06/17 01:15:27;;;;;;;13.18;7.55;;;;;;;15.56;78.03;94896.19;5038394;28;20334;-76
2022/06/17 01:17:56;;;;;;;12.95;6.90;;;;;;;15.50;78.60;94900.28;5051108;28;20220;-76
2022/06/17 01:20:25;;;;;;;9.73;6.85;;;;;;;15.45;78.95;94895.84;5050382;28;20657;-76
2022/06/17 01:22:56;;;;;;;9.75;7.18;;;;;;;15.37;80.21;94890.56;5051149;28;20196;-76
2022/06/17 01:25:28;;;;;;;13.18;7.78;;;;;;;15.19;81.09;94890.09;5050630;28;20594;-75
2022/06/17 01:27:57;;;;;;;11.95;7.30;;;;;;;15.09;81.04;94893.34;5050841;28;20698;-75
2022/06/17 01:30:26;;;;;;;15.13;7.82;;;;;;;15.17;81.01;94892.41;5050702;28;20300;-75
2022/06/17 01:32:57;;;;;;;14.40;7.97;;;;;;;15.19;80.72;94888.16;5050987;28;20199;-76
2022/06/17 01:35:27;;;;;;;14.90;8.07;;;;;;;15.14;81.41;94882.19;5051190;28;20223;-75
2022/06/17 01:37:57;;;;;;;11.23;7.43;;;;;;;15.24;80.91;94881.69;5056348;28;20237;-75
2022/06/17 01:40:28;;;;;;;13.85;7.75;;;;;;;15.44;79.83;94883.38;5057709;28;20223;-75
2022/06/17 01:42:55;;;;;;;12.23;7.22;;;;;;;15.28;80.50;94875.16;5045065;28;20219;-75
2022/06/17 01:45:22;;;;;;;13.70;8.65;;;;;;;15.20;80.44;94867.94;5045801;28;20270;-76
2022/06/17 01:47:49;;;;;;;21.00;9.10;;;;;;;15.27;80.39;94864.59;5057673;28;20333;-76
2022/06/17 01:50:19;;;;;;;13.25;8.57;;;;;;;15.21;79.94;94864.06;5056959;28;20690;-76
2022/06/17 01:52:51;;;;;;;13.45;8.73;;;;;;;15.22;80.25;94864.84;5057150;28;20223;-77
2022/06/17 01:55:23;;;;;;;14.23;7.88;;;;;;;15.32;80.33;94869.78;5057713;28;20200;-76
2022/06/17 01:57:56;;;;;;;11.38;7.63;;;;;;;15.48;79.56;94873.31;5057245;28;20227;-76
2022/06/17 02:00:26;;;;;;;13.27;8.02;;;;;;;15.39;79.50;94875.44;5057128;28;20253;-76
2022/06/17 02:02:57;;;;;;;14.50;7.78;;;;;;;15.29;79.62;94870.50;5057489;28;20333;-75
2022/06/17 02:05:26;;;;;;;13.98;8.35;;;;;;;15.31;79.55;94879.09;5057610;28;20260;-76
2022/06/17 02:07:57;;;;;;;11.20;7.55;;;;;;;15.33;79.71;94876.81;5057134;28;20211;-76
2022/06/17 02:10:28;;;;;;;13.68;8.32;;;;;;;15.31;79.57;94878.34;5057294;28;20338;-76
2022/06/17 02:12:58;;;;;;;11.95;7.45;;;;;;;15.32;79.52;94880.69;5056918;28;20713;-75
2022/06/17 02:15:25;;;;;;;13.27;8.57;;;;;;;15.29;79.38;94876.75;5044100;28;20323;-76
2022/06/17 02:17:53;;;;;;;11.77;7.30;;;;;;;15.20;79.02;94884.31;5057070;28;20634;-76
2022/06/17 02:20:22;;;;;;;11.40;7.15;;;;;;;15.14;78.58;94891.19;5057215;28;20732;-76
2022/06/17 02:22:49;;;;;;;11.60;7.13;;;;;;;14.79;80.19;94885.53;5056537;28;20223;-75
2022/06/17 02:25:36;;;;;;;11.88;7.63;;;;;;;14.82;80.44;94884.84;5129520;27;20549;-77
2022/06/17 02:28:04;;;;;;;12.77;7.60;;;;;;;14.81;80.61;94883.25;5105240;28;20225;-77
2022/06/17 02:30:32;;;;;;;10.00;7.35;;;;;;;14.78;81.10;94894.06;5099190;28;20198;-75
2022/06/17 02:33:02;;;;;;;10.32;6.57;;;;;;;14.62;81.80;94894.03;5108038;28;20293;-75
2022/06/17 02:35:35;;;;;;;14.32;7.28;;;;;;;14.79;80.94;94884.75;5108995;28;20201;-75
2022/06/17 02:38:02;;;;;;;10.52;6.75;;;;;;;14.76;81.35;94885.47;5108660;28;20707;-76
2022/06/17 02:40:36;;;;;;;11.90;7.30;;;;;;;14.81;81.16;94883.25;5108566;28;20222;-76
2022/06/17 02:43:07;;;;;;;12.90;6.75;;;;;;;14.86;80.71;94885.75;5108606;28;20300;-76
2022/06/17 02:45:41;;;;;;;14.30;7.22;;;;;;;15.02;80.58;94882.25;5108627;28;20509;-76
2022/06/17 02:48:22;;;;;;;13.95;8.02;;;;;;;14.93;80.47;94885.94;5108833;28;20229;-75
2022/06/17 02:50:50;;;;;;;11.65;7.20;;;;;;;15.00;80.43;94884.53;5108386;28;20654;-76
2022/06/17 02:53:17;;;;;;;12.18;7.28;;;;;;;15.01;80.45;94888.88;5108520;28;20259;-76
2022/06/17 02:55:46;;;;;;;9.95;7.53;;;;;;;15.04;80.24;94885.41;5108355;28;20225;-75
2022/06/17 02:58:23;;;;;;;15.18;8.52;;;;;;;15.04;80.47;94888.13;5108516;28;20206;-75
2022/06/17 03:00:52;;;;;;;12.10;7.40;;;;;;;15.08;80.62;94891.75;5096390;28;20189;-76
2022/06/17 03:03:21;;;;;;;12.50;8.10;;;;;;;15.29;80.66;94895.06;5108315;28;20202;-75
2022/06/17 03:05:48;;;;;;;11.68;7.93;;;;;;;15.69;79.87;94888.69;5108378;28;20201;-75
2022/06/17 03:08:21;;;;;;;13.40;7.65;;;;;;;16.29;78.16;94879.91;5108073;28;20221;-75
2022/06/17 03:10:51;;;;;;;18.55;9.32;;;;;;;16.97;75.63;94882.13;5107892;28;20249;-75
2022/06/17 03:13:24;;;;;;;15.45;11.00;;;;;;;17.72;72.81;94870.59;5108295;28;20221;-76
2022/06/17 03:15:53;;;;;;;10.05;7.63;;;;;;;18.23;70.46;94869.41;5108366;28;20336;-76
2022/06/17 03:18:21;;;;;;;12.18;8.57;;;;;;;18.66;69.08;94865.31;5107704;28;20202;-76
2022/06/17 03:20:50;;;;;;;10.45;7.85;;;;;;;19.33;66.30;94876.25;5107423;28;20230;-76
2022/06/17 03:23:23;;;;;;;12.32;7.47;;;;;;;19.92;64.16;94868.97;5107703;28;20217;-75
2022/06/17 03:25:58;;;;;;;12.02;7.15;;;;;;;20.57;62.61;94867.06;5107536;28;20704;-76
2022/06/17 03:28:29;;;;;;;10.07;6.97;;;;;;;20.30;61.53;94879.47;5108069;28;20193;-76
2022/06/17 03:31:04;;;;;;;13.38;7.18;;;;;;;20.35;61.59;94876.38;5107089;28;20221;-75
2022/06/17 03:33:35;;;;;;;13.07;9.65;;;;;;;21.41;58.83;94858.75;5107779;28;20615;-74
2022/06/17 03:36:09;;;;;;;11.38;9.45;;;;;;;21.91;57.26;94854.84;5098456;28;20222;-75
2022/06/17 03:38:41;;;;;;;13.35;10.13;;;;;;;22.65;56.04;94856.72;5093909;28;20300;-76
2022/06/17 03:41:15;;;;;;;11.95;8.85;;;;;;;22.54;55.91;94864.25;5093789;28;20708;-77
2022/06/17 03:43:47;;;;;;;13.52;9.90;;;;;;;22.59;55.12;94868.56;5093675;28;20596;-77
2022/06/17 03:46:15;;;;;;;12.13;9.98;;;;;;;23.51;53.00;94864.66;5093572;28;20222;-77
2022/06/17 03:48:46;;;;;;;14.10;9.55;;;;;;;23.53;52.86;94876.13;5094138;28;20255;-77
2022/06/17 03:51:17;;;;;;;13.00;9.45;;;;;;;24.07;51.22;94869.78;5094278;28;20194;-77
2022/06/17 03:53:46;;;;;;;12.00;9.40;;;;;;;24.87;49.14;94870.66;5093453;28;20237;-75
2022/06/17 03:56:18;;;;;;;12.98;10.25;;;;;;;25.35;48.01;94868.47;5092874;28;20325;-76
2022/06/17 03:58:47;;;;;;;13.13;9.85;;;;;;;25.28;48.03;94876.91;5093283;28;20199;-76
2022/06/17 04:01:20;;;;;;;12.88;10.05;;;;;;;25.68;47.17;94880.75;5093613;28;20206;-76
2022/06/17 04:03:54;;;;;;;14.07;9.95;;;;;;;25.92;46.88;94878.78;5093237;28;20243;-76
2022/06/17 04:06:24;;;;;;;12.70;10.00;;;;;;;26.58;45.30;94874.53;5093319;28;20222;-77
2022/06/17 04:08:54;;;;;;;11.60;10.05;;;;;;;25.90;46.59;94878.41;5080242;28;20303;-79
2022/06/17 04:11:24;;;;;;;11.35;9.90;;;;;;;27.54;43.90;94874.22;5093574;28;20819;-77
2022/06/17 04:13:52;;;;;;;18.55;10.98;;;;;;;26.95;44.13;94876.25;5093200;28;20222;-79
2022/06/17 04:16:24;;;;;;;14.60;11.23;;;;;;;26.95;43.94;94882.59;5092725;28;20198;-79
2022/06/17 04:18:51;;;;;;;12.15;10.63;;;;;;;26.65;44.87;94883.53;5093713;28;20226;-80
2022/06/17 04:21:18;;;;;;;14.50;9.88;;;;;;;27.34;44.56;94881.81;5092947;28;20700;-77
2022/06/17 04:23:47;;;;;;;14.48;10.75;;;;;;;27.27;43.39;94881.97;5093050;28;20299;-77
2022/06/17 04:26:19;;;;;;;14.80;9.98;;;;;;;27.99;42.66;94887.56;5092262;28;20246;-76
2022/06/17 04:28:52;;;;;;;12.13;10.30;;;;;;;27.69;43.00;94890.66;5092479;28;20750;-77
2022/06/17 04:31:21;;;;;;;13.52;10.60;;;;;;;26.39;45.14;94895.50;5093070;28;20198;-77
2022/06/17 04:33:51;;;;;;;11.55;10.35;;;;;;;27.01;43.74;94894.03;5093452;28;20214;-77
2022/06/17 04:36:22;;;;;;;12.77;10.45;;;;;;;27.33;42.92;94894.19;5093192;28;20221;-76
2022/06/17 04:38:54;;;;;;;11.18;9.70;;;;;;;28.54;41.14;94883.06;5091698;28;20219;-76
2022/06/17 04:41:25;;;;;;;15.63;9.73;;;;;;;29.31;39.68;94884.97;5078805;28;20281;-78
2022/06/17 04:43:57;;;;;;;9.55;8.55;;;;;;;29.40;39.25;94879.56;5092825;28;20215;-78
2022/06/17 04:46:31;;;;;;;10.90;9.15;;;;;;;29.70;38.10;94883.84;5093008;28;20287;-77
2022/06/17 04:48:58;;;;;;;13.13;8.77;;;;;;;29.49;38.66;94888.06;5092401;28;20228;-76
2022/06/17 04:51:25;;;;;;;9.35;7.53;;;;;;;29.37;39.03;94888.81;5092151;28;20565;-78
2022/06/17 04:53:54;;;;;;;10.95;7.75;;;;;;;29.58;38.30;94888.19;5092698;28;20293;-78
2022/06/17 04:56:27;;;;;;;9.48;7.80;;;;;;;28.77;38.96;94880.06;5092635;28;20203;-78
2022/06/17 04:58:56;;;;;;;12.52;7.50;;;;;;;29.26;38.31;94882.72;5092340;28;20199;-78
2022/06/17 05:01:24;;;;;;;6.88;6.07;;;;;;;28.32;39.70;94882.03;5093150;28;20275;-78
2022/06/17 05:03:51;;;;;;;6.95;6.10;;;;;;;29.93;37.00;94882.75;5092452;28;20227;-78
2022/06/17 05:06:18;;;;;;;8.25;6.63;;;;;;;30.25;36.07;94878.97;5092479;28;20258;-78
2022/06/17 05:08:50;;;;;;;7.88;6.28;;;;;;;29.47;37.80;94887.72;5092122;28;20245;-77
2022/06/17 05:11:25;;;;;;;9.82;5.85;;;;;;;29.80;36.68;94885.53;5092204;28;20225;-78
2022/06/17 05:13:57;;;;;;;8.90;5.63;;;;;;;30.57;36.24;94877.94;5079713;28;20262;-78
2022/06/17 05:16:24;;;;;;;8.60;6.13;;;;;;;30.94;35.08;94879.84;5092410;28;20222;-78
2022/06/17 05:18:51;;;;;;;7.50;5.57;;;;;;;31.91;33.83;94872.28;5092271;28;20218;-79
2022/06/17 05:21:23;;;;;;;6.45;5.13;;;;;;;29.54;36.46;94884.72;5092277;28;20218;-78
2022/06/17 05:23:55;;;;;;;9.50;5.57;;;;;;;29.00;37.76;94887.44;5091728;28;20226;-78
2022/06/17 05:26:21;;;;;;;9.10;5.38;;;;;;;29.49;37.58;94885.28;5091662;28;20230;-78
2022/06/17 05:28:48;;;;;;;7.68;4.88;;;;;;;30.84;35.38;94872.59;5091630;28;20599;-79
2022/06/17 05:31:20;;;;;;;5.60;5.00;;;;;;;30.98;34.87;94869.31;5091972;28;20283;-78
2022/06/17 05:33:47;;;;;;;5.28;4.45;;;;;;;29.63;37.22;94882.06;5092008;28;20572;-79
2022/06/17 05:36:15;;;;;;;7.45;4.70;;;;;;;30.32;36.41;94873.16;5091646;28;20621;-78
2022/06/17 05:38:43;;;;;;;10.57;5.05;;;;;;;31.30;34.99;94864.56;5092953;28;20194;-78
2022/06/17 05:41:14;;;;;;;8.13;5.10;;;;;;;32.31;34.00;94877.91;5091773;28;20692;-78
2022/06/17 05:43:41;;;;;;;9.20;4.47;;;;;;;32.48;33.28;94847.56;5091995;28;20231;-78
2022/06/17 05:46:08;;;;;;;6.72;4.57;;;;;;;31.56;33.71;94868.03;5091762;28;20283;-78
2022/06/17 05:48:36;;;;;;;5.03;4.53;;;;;;;30.72;34.73;94868.63;5091404;28;20222;-79
2022/06/17 05:51:03;;;;;;;6.28;4.35;;;;;;;30.57;35.79;94861.16;5092101;28;20206;-79
2022/06/17 05:53:31;;;;;;;5.68;4.28;;;;;;;32.57;32.91;94856.00;5091534;28;20202;-79
2022/06/17 05:56:04;;;;;;;5.88;4.47;;;;;;;32.87;32.50;94854.34;5091927;28;20209;-80
2022/06/17 05:58:31;;;;;;;12.60;5.65;;;;;;;34.02;31.07;94859.22;5091201;28;20202;-80
2022/06/17 06:00:58;;;;;;;6.55;4.13;;;;;;;33.84;31.08;94860.81;5091551;28;20218;-79
2022/06/17 06:03:40;;;;;;;4.93;4.43;;;;;;;33.17;31.61;94855.44;5091958;28;20712;-80
2022/06/17 06:06:07;;;;;;;10.50;4.43;;;;;;;33.64;30.75;94857.72;5091823;28;20260;-78
2022/06/17 06:08:33;;;;;;;9.15;4.88;;;;;;;34.13;30.32;94853.84;5091405;28;20299;-78
2022/06/17 06:11:04;;;;;;;6.28;4.10;;;;;;;33.36;31.85;94850.59;5091253;28;20222;-78
2022/06/17 06:13:30;;;;;;;6.85;3.88;;;;;;;32.72;32.28;94851.38;5091702;28;20194;-79
2022/06/17 06:16:01;;;;;;;7.38;5.07;;;;;;;33.18;31.98;94854.19;5091665;28;20267;-78
2022/06/17 06:18:31;;;;;;;6.68;5.20;;;;;;;33.39;31.46;94852.47;5091494;28;20194;-77
2022/06/17 06:21:04;;;;;;;5.95;5.05;;;;;;;34.54;29.81;94838.94;5091800;28;20219;-78
2022/06/17 06:23:31;;;;;;;10.70;5.28;;;;;;;32.80;32.03;94847.00;5078051;28;20236;-77
2022/06/17 06:25:58;;;;;;;6.30;4.90;;;;;;;33.09;31.51;94852.16;5089148;28;20222;-78
2022/06/17 06:28:26;;;;;;;8.52;5.13;;;;;;;32.58;31.84;94851.16;5091072;28;20259;-78
2022/06/17 06:30:57;;;;;;;7.85;5.10;;;;;;;31.96;33.80;94846.47;5091010;28;20226;-77
2022/06/17 06:33:24;;;;;;;7.50;4.30;;;;;;;32.69;32.48;94851.47;5091327;28;20371;-78
2022/06/17 06:35:51;;;;;;;9.57;5.00;;;;;;;32.58;32.68;94845.56;5090888;28;20222;-78
2022/06/17 06:38:19;;;;;;;6.18;4.28;;;;;;;32.67;32.95;94848.34;5090682;28;20291;-78
2022/06/17 06:40:47;;;;;;;5.68;4.40;;;;;;;32.13;33.42;94849.75;5090683;28;20202;-78
2022/06/17 06:43:16;;;;;;;4.82;4.40;;;;;;;30.47;35.50;94848.31;5090561;28;20199;-78
2022/06/17 06:45:44;;;;;;;8.15;5.03;;;;;;;30.93;35.10;94841.88;5090730;28;20230;-78
2022/06/17 06:48:12;;;;;;;8.13;4.80;;;;;;;30.53;36.49;94843.69;5090870;28;20229;-78
2022/06/17 06:50:40;;;;;;;6.63;5.05;;;;;;;30.77;35.41;94842.06;5090197;28;20209;-77
2022/06/17 06:53:08;;;;;;;6.72;5.50;;;;;;;30.06;36.06;94850.03;5090516;28;20198;-76
2022/06/17 06:55:37;;;;;;;9.57;4.95;;;;;;;30.71;36.39;94838.28;5090615;28;20255;-79
2022/06/17 06:58:09;;;;;;;6.18;4.95;;;;;;;28.21;39.61;94849.63;5090895;28;20206;-78
2022/06/17 07:00:39;;;;;;;6.85;5.13;;;;;;;28.79;39.46;94855.34;5090991;28;20187;-78
2022/06/17 07:03:08;;;;;;;7.93;5.10;;;;;;;30.24;36.84;94844.63;5090690;28;20725;-79
2022/06/17 07:05:37;;;;;;;8.77;5.30;;;;;;;28.94;38.48;94856.53;5091236;28;20230;-78
2022/06/17 07:08:04;;;;;;;8.10;5.10;;;;;;;28.98;39.37;94850.81;5090500;28;20219;-78
2022/06/17 07:10:34;;;;;;;6.13;5.10;;;;;;;28.83;39.63;94844.09;5078787;28;20198;-78
2022/06/17 07:13:08;;;;;;;6.50;5.35;;;;;;;27.06;42.30;94849.78;5094618;28;20218;-79
2022/06/17 07:15:35;;;;;;;6.25;5.45;;;;;;;28.04;41.03;94845.25;5094703;28;20233;-78
2022/06/17 07:18:05;;;;;;;7.55;5.50;;;;;;;27.96;42.14;94852.22;5094500;28;20234;-78
2022/06/17 07:20:38;;;;;;;6.88;5.10;;;;;;;29.16;39.31;94844.75;5094833;28;20202;-78
2022/06/17 07:23:05;;;;;;;8.98;5.80;;;;;;;29.13;38.61;94840.03;5093946;28;20600;-78
2022/06/17 07:25:32;;;;;;;6.57;5.13;;;;;;;30.37;36.56;94837.00;5094650;28;20697;-78
2022/06/17 07:27:59;;;;;;;6.28;5.25;;;;;;;31.17;36.21;94831.03;5094133;28;20222;-78
2022/06/17 07:30:29;;;;;;;6.55;5.65;;;;;;;30.71;35.85;94832.69;5094474;28;20218;-78
2022/06/17 07:32:55;;;;;;;6.55;4.55;;;;;;;30.50;36.02;94822.19;5094164;28;20701;-77
2022/06/17 07:35:23;;;;;;;9.70;5.57;;;;;;;30.63;36.89;94831.38;5094314;28;20283;-79
2022/06/17 07:40:35;;;;;;;7.38;4.85;;;;;;;30.12;37.75;94820.28;5093898;28;20739;-78
2022/06/17 07:43:03;;;;;;;5.57;4.85;;;;;;;30.39;36.38;94826.16;5094151;28;20202;-78
2022/06/17 07:45:32;;;;;;;10.00;5.72;;;;;;;30.22;36.95;94824.72;5093411;28;20226;-77
2022/06/17 07:48:01;;;;;;;7.82;5.80;;;;;;;29.63;37.39;94829.00;5093887;28;20595;-78
2022/06/17 07:50:31;;;;;;;9.18;5.18;;;;;;;29.67;38.09;94818.47;5093742;28;20237;-78
2022/06/17 07:52:58;;;;;;;8.68;5.60;;;;;;;29.87;37.80;94814.69;5093873;28;20548;-78
2022/06/17 07:55:26;;;;;;;9.07;5.63;;;;;;;28.74;39.39;94827.16;5093779;28;20606;-78
2022/06/17 07:57:53;;;;;;;7.03;6.00;;;;;;;29.59;38.42;94817.16;5092933;28;20309;-78
2022/06/17 08:00:23;;;;;;;6.70;5.47;;;;;;;29.38;38.08;94819.78;5093320;28;20229;-78
2022/06/17 08:02:55;;;;;;;7.40;6.00;;;;;;;28.71;39.34;94825.25;5093202;28;20700;-78
2022/06/17 08:05:22;;;;;;;7.88;5.88;;;;;;;29.80;37.71;94810.09;5092895;28;20752;-79
2022/06/17 08:07:49;;;;;;;6.57;5.88;;;;;;;29.55;38.39;94821.28;5093734;28;20285;-79
2022/06/17 08:10:18;;;;;;;9.20;6.03;;;;;;;29.10;38.22;94816.63;5093703;28;20301;-77
2022/06/17 08:12:45;;;;;;;8.18;5.97;;;;;;;29.48;38.07;94822.28;5093610;28;20622;-79
2022/06/17 08:15:18;;;;;;;10.45;5.82;;;;;;;30.63;37.93;94809.00;5092764;28;20287;-78
2022/06/17 08:17:45;;;;;;;6.90;5.93;;;;;;;30.37;37.66;94803.44;5093725;28;20294;-79
2022/06/17 08:20:17;;;;;;;7.60;6.45;;;;;;;29.82;37.96;94806.88;5093232;28;20218;-79
2022/06/17 08:22:44;;;;;;;8.40;6.10;;;;;;;30.03;37.83;94800.63;5093188;28;20195;-79
2022/06/17 08:25:12;;;;;;;7.78;6.43;;;;;;;29.50;39.44;94805.09;5092456;28;20299;-79
2022/06/17 08:27:42;;;;;;;6.75;5.60;;;;;;;30.42;37.94;94795.72;5093171;28;20222;-78
2022/06/17 08:30:10;;;;;;;8.27;5.68;;;;;;;29.93;38.07;94796.16;5088935;28;20210;-79
2022/06/17 08:32:46;;;;;;;12.55;6.40;;;;;;;28.74;39.87;94797.28;5092162;28;20194;-84
2022/06/17 08:35:15;;;;;;;8.85;6.90;;;;;;;27.88;41.29;94797.94;5089623;28;20222;-78
2022/06/17 08:37:43;;;;;;;9.88;6.70;;;;;;;27.56;41.95;94805.03;5092321;28;20222;-77
2022/06/17 08:40:37;;;;;;;10.18;6.60;;;;;;;27.99;42.70;94792.88;5092039;28;20282;-78
2022/06/17 08:43:18;;;;;;;9.75;6.15;;;;;;;28.17;42.25;94793.19;5084446;28;20218;-78
2022/06/17 08:45:57;;;;;;;9.05;7.32;;;;;;;26.68;44.07;94793.72;5088784;28;20219;-78
2022/06/17 08:48:34;;;;;;;8.93;7.18;;;;;;;27.22;43.02;94796.22;5084542;28;20572;-79
2022/06/17 08:51:15;;;;;;;11.50;7.75;;;;;;;28.55;41.73;94789.84;5092845;28;20194;-78
2022/06/17 08:54:08;;;;;;;9.20;6.18;;;;;;;29.08;40.55;94782.00;5092671;28;20230;-78
2022/06/17 08:56:40;;;;;;;8.82;6.22;;;;;;;28.74;40.76;94788.91;5092416;28;20229;-78
2022/06/17 08:59:22;;;;;;;7.25;6.43;;;;;;;27.65;42.68;94782.16;5092294;28;20187;-78
2022/06/17 09:01:55;;;;;;;11.40;6.90;;;;;;;27.50;42.91;94783.66;5092253;28;20218;-77
2022/06/17 09:04:36;;;;;;;7.00;6.15;;;;;;;27.78;43.27;94776.66;5091905;28;20221;-78
2022/06/17 09:07:19;;;;;;;6.78;5.93;;;;;;;28.44;43.24;94784.53;5091640;28;20754;-78
2022/06/17 09:10:00;;;;;;;13.15;6.75;;;;;;;27.82;43.05;94777.38;5092221;28;20230;-79
2022/06/17 09:12:38;;;;;;;7.53;6.13;;;;;;;28.58;42.04;94786.16;5092256;28;20275;-78
2022/06/17 09:15:13;;;;;;;9.68;6.25;;;;;;;27.51;43.73;94783.22;5092627;28;20198;-77
2022/06/17 09:17:53;;;;;;;7.63;6.10;;;;;;;27.51;43.39;94786.00;5091537;28;20229;-76
2022/06/17 09:20:26;;;;;;;7.05;6.15;;;;;;;26.99;45.63;94799.09;5079971;28;20240;-80
2022/06/17 09:22:58;;;;;;;10.65;6.18;;;;;;;26.77;44.33;94793.97;5092327;28;20245;-77
2022/06/17 09:25:39;;;;;;;9.20;7.10;;;;;;;27.01;43.29;94780.00;5092242;28;20285;-78
2022/06/17 09:28:10;;;;;;;9.35;5.78;;;;;;;27.14;44.33;94784.47;5092382;28;20241;-78
2022/06/17 09:30:45;;;;;;;8.75;6.95;;;;;;;27.54;43.73;94776.03;5091665;28;20708;-79
2022/06/17 09:33:18;;;;;;;10.25;6.45;;;;;;;27.25;44.29;94785.00;5078096;28;20190;-79
2022/06/17 09:35:50;;;;;;;7.68;6.25;;;;;;;27.71;43.30;94776.84;5091899;28;20195;-77
2022/06/17 09:38:32;;;;;;;7.78;6.20;;;;;;;27.18;42.79;94784.41;5091311;28;20534;-77
2022/06/17 09:41:06;;;;;;;8.25;5.85;;;;;;;27.36;43.86;94778.41;5091838;28;20248;-78
2022/06/17 09:43:39;;;;;;;8.10;6.00;;;;;;;27.64;43.67;94766.66;5091942;28;20217;-80
2022/06/17 09:46:11;;;;;;;8.15;6.25;;;;;;;27.15;44.52;94785.25;5077917;28;20218;-79
2022/06/17 09:48:45;;;;;;;8.70;6.68;;;;;;;27.49;42.36;94777.31;5090848;28;20191;-79
2022/06/17 09:51:16;;;;;;;9.45;6.22;;;;;;;28.10;42.27;94776.66;5091466;28;20221;-77
2022/06/17 09:53:52;;;;;;;9.05;5.72;;;;;;;27.59;39.10;94764.41;5091553;28;20222;-79
2022/06/17 09:56:26;;;;;;;8.60;5.47;;;;;;;27.53;40.25;94766.88;5091835;28;20595;-78
2022/06/17 09:59:03;;;;;;;6.10;5.50;;;;;;;27.49;39.36;94766.19;5091344;28;20630;-78
2022/06/17 10:01:30;;;;;;;8.25;5.03;;;;;;;27.15;39.44;94774.13;5091285;28;20667;-79
2022/06/17 10:03:58;;;;;;;5.50;4.32;;;;;;;27.56;39.70;94760.50;5077916;28;20198;-78
2022/06/17 10:06:36;;;;;;;5.78;3.95;;;;;;;28.23;35.24;94774.75;5090886;28;20275;-78
2022/06/17 10:09:19;;;;;;;5.38;3.95;;;;;;;28.08;34.55;94767.94;5091010;28;20277;-77
2022/06/17 10:11:53;;;;;;;6.63;4.10;;;;;;;28.64;34.50;94762.88;5091319;28;20240;-79
2022/06/17 10:14:32;;;;;;;4.45;3.58;;;;;;;29.10;34.17;94762.81;5091485;28;20283;-78
2022/06/17 10:19:59;;;;;;;5.47;4.30;;;;;;;28.98;36.38;94762.31;5090797;28;20221;-78
2022/06/17 10:22:40;;;;;;;8.60;4.88;;;;;;;28.50;36.49;94765.28;5091224;28;20197;-78
2022/06/17 10:25:25;;;;;;;5.25;4.53;;;;;;;27.65;36.59;94770.22;5078553;28;20233;-77
2022/06/17 10:28:07;;;;;;;6.45;3.97;;;;;;;28.45;37.97;94755.44;5091102;28;20241;-79
2022/06/17 10:30:42;;;;;;;6.97;4.30;;;;;;;28.28;35.84;94757.50;5090805;28;20646;-79
2022/06/17 10:33:12;;;;;;;6.05;5.03;;;;;;;28.98;38.81;94751.16;5077112;28;20213;-77
2022/06/17 10:35:40;;;;;;;5.20;4.60;;;;;;;28.98;37.07;94759.53;5091483;28;20194;-78
2022/06/17 10:38:11;;;;;;;6.13;4.35;;;;;;;28.05;36.68;94752.09;5090728;28;20218;-75
2022/06/17 10:40:42;;;;;;;5.97;4.75;;;;;;;28.13;35.72;94767.44;5090490;28;20217;-81
2022/06/17 10:43:14;;;;;;;5.05;4.10;;;;;;;27.61;36.19;94752.84;5091014;28;20194;-78
2022/06/17 10:45:41;;;;;;;5.72;3.90;;;;;;;28.59;35.04;94757.84;5092243;28;20193;-77
2022/06/17 10:48:18;;;;;;;6.85;3.88;;;;;;;29.11;34.98;94750.44;5094117;28;20198;-76
2022/06/17 10:50:45;;;;;;;4.38;3.97;;;;;;;29.49;34.51;94748.47;5094223;28;20229;-74
2022/06/17 10:53:18;;;;;;;4.50;3.60;;;;;;;28.70;37.05;94746.38;5094764;28;20631;-76
2022/06/17 10:55:49;;;;;;;5.05;4.07;;;;;;;28.50;36.02;94759.72;5094444;28;20689;-78
2022/06/17 10:58:19;;;;;;;5.50;4.38;;;;;;;29.16;33.57;94749.88;5094808;28;20222;-79
2022/06/17 11:00:55;;;;;;;7.40;4.30;;;;;;;29.28;32.38;94743.50;5081587;28;20236;-80
2022/06/17 11:03:25;;;;;;;3.88;3.47;;;;;;;29.19;32.42;94743.41;5094246;28;20226;-76
2022/06/17 11:06:15;;;;;;;3.60;3.30;;;;;;;29.77;32.30;94748.78;5094294;28;20219;-76
2022/06/17 11:08:53;;;;;;;4.70;3.95;;;;;;;29.45;33.52;94752.59;5094442;28;20234;-77
2022/06/17 11:14:20;;;;;;;5.63;3.72;;;;;;;28.97;34.65;94760.75;5094173;28;20775;-77
2022/06/17 11:16:47;;;;;;;4.65;4.00;;;;;;;28.92;36.07;94747.38;5094333;28;20699;-80
2022/06/17 11:19:16;;;;;;;5.45;3.97;;;;;;;29.49;34.68;94742.09;5094602;28;20701;-77
2022/06/17 11:21:47;;;;;;;10.18;4.90;;;;;;;29.00;36.74;94740.34;5093976;28;20638;-77
2022/06/17 11:24:22;;;;;;;6.40;5.30;;;;;;;28.28;37.48;94740.78;5093769;28;20234;-76
2022/06/17 11:27:05;;;;;;;8.65;5.10;;;;;;;27.75;38.39;94756.03;5081167;28;20648;-74
2022/06/17 11:29:40;;;;;;;5.93;5.03;;;;;;;27.57;39.40;94739.78;5094558;28;20228;-70
2022/06/17 11:32:26;;;;;;;6.47;5.65;;;;;;;27.49;40.61;94738.34;5094477;28;20197;-77
2022/06/17 11:34:56;;;;;;;7.15;5.90;;;;;;;27.52;41.97;94726.34;5081200;28;20313;-77
2022/06/17 11:37:27;;;;;;;7.22;5.30;;;;;;;26.86;43.75;94741.34;5094303;28;20230;-76
2022/06/17 11:40:14;;;;;;;8.07;6.38;;;;;;;25.80;45.34;94741.38;5094105;28;20198;-75
2022/06/17 11:42:48;;;;;;;7.30;6.35;;;;;;;25.59;45.64;94732.56;5093785;28;20281;-70
2022/06/17 11:45:18;;;;;;;10.07;6.55;;;;;;;25.24;46.85;94734.72;5094012;28;20330;-76
2022/06/17 11:47:49;;;;;;;8.60;6.10;;;;;;;24.89;47.77;94740.72;5093744;28;20287;-76
2022/06/17 11:50:20;;;;;;;9.00;6.50;;;;;;;24.95;47.63;94733.56;5094010;28;20244;-76
2022/06/17 11:52:48;;;;;;;9.00;6.30;;;;;;;24.92;47.50;94739.91;5093338;28;20190;-75
2022/06/17 11:55:16;;;;;;;11.18;6.68;;;;;;;25.17;48.30;94732.03;5093398;28;20268;-74